sensor_id;sensor_type;location;lat;lon;timestamp;pressure;altitude;pressure_sealevel;temperature;humidity
43436;BME280;36399;51.444;-2.018;2022-07-05T00:00:18;101263.38;;;8.64;100.00
43436;BME280;36399;51.444;-2.018;2022-07-05T00:02:44;101271.09;;;8.59;100.00
43436;BME280;36399;51.444;-2.018;2022-07-05T00:05:10;101277.69;;;8.48;100.00
43436;BME280;36399;51.444;-2.018;2022-07-05T00:07:37;101279.25;;;8.43;100.00
43436;BME280;36399;51.444;-2.018;2022-07-05T00:10:03;101275.59;;;8.38;100.00
43436;BME280;36399;51.444;-2.018;2022-07-05T00:12:32;101282.38;;;8.33;100.00
43436;BME280;36399;51.444;-2.018;2022-07-05T00:14:59;101287.34;;;8.27;100.00
43436;BME280;36399;51.444;-2.018;2022-07-05T00:17:25;101279.44;;;8.25;100.00
43436;BME280;36399;51.444;-2.018;2022-07-05T00:19:52;101278.34;;;8.18;100.00
43436;BME280;36399;51.444;-2.018;2022-07-05T00:22:18;101280.97;;;8.18;100.00
43436;BME280;36399;51.444;-2.018;2022-07-05T00:24:44;101287.03;;;8.17;100.00
43436;BME280;36399;51.444;-2.018;2022-07-05T00:27:10;101282.69;;;8.18;100.00
43436;BME280;36399;51.444;-2.018;2022-07-05T00:29:36;101290.25;;;8.10;100.00
43436;BME280;36399;51.444;-2.018;2022-07-05T00:32:02;101286.69;;;8.08;100.00
43436;BME280;36399;51.444;-2.018;2022-07-05T00:34:29;101294.09;;;7.96;100.00
43436;BME280;36399;51.444;-2.018;2022-07-05T00:36:55;101292.06;;;7.87;100.00
43436;BME280;36399;51.444;-2.018;2022-07-05T00:39:21;101301.63;;;7.87;100.00
43436;BME280;36399;51.444;-2.018;2022-07-05T00:41:46;101301.41;;;7.81;100.00
43436;BME280;36399;51.444;-2.018;2022-07-05T00:44:13;101288.91;;;7.74;100.00
43436;BME280;36399;51.444;-2.018;2022-07-05T00:46:43;101289.69;;;7.71;100.00
43436;BME280;36399;51.444;-2.018;2022-07-05T00:49:09;101291.16;;;7.65;100.00
43436;BME280;36399;51.444;-2.018;2022-07-05T00:51:37;101290.09;;;7.59;100.00
43436;BME280;36399;51.444;-2.018;2022-07-05T00:54:06;101294.38;;;7.57;100.00
43436;BME280;36399;51.444;-2.018;2022-07-05T00:56:32;101288.88;;;7.50;100.00
43436;BME280;36399;51.444;-2.018;2022-07-05T00:59:00;101292.09;;;7.43;100.00
43436;BME280;36399;51.444;-2.018;2022-07-05T01:01:27;101294.81;;;7.46;100.00
43436;BME280;36399;51.444;-2.018;2022-07-05T01:03:53;101291.06;;;7.39;100.00
43436;BME280;36399;51.444;-2.018;2022-07-05T01:06:19;101287.63;;;7.40;100.00
43436;BME280;36399;51.444;-2.018;2022-07-05T01:08:46;101287.47;;;7.36;100.00
43436;BME280;36399;51.444;-2.018;2022-07-05T01:11:13;101285.50;;;7.30;100.00
43436;BME280;36399;51.444;-2.018;2022-07-05T01:13:41;101287.97;;;7.27;100.00
43436;BME280;36399;51.444;-2.018;2022-07-05T01:16:08;101294.66;;;7.20;100.00
43436;BME280;36399;51.444;-2.018;2022-07-05T01:18:34;101301.72;;;7.23;100.00
43436;BME280;36399;51.444;-2.018;2022-07-05T01:21:02;101291.09;;;7.18;100.00
43436;BME280;36399;51.444;-2.018;2022-07-05T01:23:31;101295.19;;;7.12;100.00
43436;BME280;36399;51.444;-2.018;2022-07-05T01:25:59;101291.34;;;7.24;100.00
43436;BME280;36399;51.444;-2.018;2022-07-05T01:28:25;101292.00;;;7.19;100.00
43436;BME280;36399;51.444;-2.018;2022-07-05T01:30:53;101291.88;;;7.16;100.00
43436;BME280;36399;51.444;-2.018;2022-07-05T01:33:19;101297.28;;;7.20;100.00
43436;BME280;36399;51.444;-2.018;2022-07-05T01:35:45;101297.09;;;7.16;100.00
43436;BME280;36399;51.444;-2.018;2022-07-05T01:38:12;101288.06;;;7.08;100.00
43436;BME280;36399;51.444;-2.018;2022-07-05T01:40:38;101294.88;;;7.04;100.00
43436;BME280;36399;51.444;-2.018;2022-07-05T01:43:04;101287.06;;;7.04;100.00
43436;BME280;36399;51.444;-2.018;2022-07-05T01:45:31;101286.28;;;7.07;100.00
43436;BME280;36399;51.444;-2.018;2022-07-05T01:48:10;101298.50;;;7.08;100.00
43436;BME280;36399;51.444;-2.018;2022-07-05T01:50:40;101286.88;;;7.00;100.00
43436;BME280;36399;51.444;-2.018;2022-07-05T01:53:19;101290.13;;;6.94;100.00
43436;BME280;36399;51.444;-2.018;2022-07-05T01:55:46;101285.44;;;6.85;100.00
43436;BME280;36399;51.444;-2.018;2022-07-05T01:58:13;101287.97;;;6.84;100.00
43436;BME280;36399;51.444;-2.018;2022-07-05T02:00:49;101290.25;;;6.76;100.00
43436;BME280;36399;51.444;-2.018;2022-07-05T02:03:16;101291.72;;;6.70;100.00
43436;BME280;36399;51.444;-2.018;2022-07-05T02:05:44;101290.81;;;6.69;100.00
43436;BME280;36399;51.444;-2.018;2022-07-05T02:08:11;101295.22;;;6.70;100.00
43436;BME280;36399;51.444;-2.018;2022-07-05T02:10:38;101290.00;;;6.70;100.00
43436;BME280;36399;51.444;-2.018;2022-07-05T02:13:05;101284.66;;;6.67;100.00
43436;BME280;36399;51.444;-2.018;2022-07-05T02:15:32;101282.63;;;6.60;100.00
43436;BME280;36399;51.444;-2.018;2022-07-05T02:17:59;101286.81;;;6.56;100.00
43436;BME280;36399;51.444;-2.018;2022-07-05T02:20:26;101279.81;;;6.55;100.00
43436;BME280;36399;51.444;-2.018;2022-07-05T02:22:52;101287.84;;;6.60;100.00
43436;BME280;36399;51.444;-2.018;2022-07-05T02:25:18;101280.72;;;6.56;100.00
43436;BME280;36399;51.444;-2.018;2022-07-05T02:27:45;101284.91;;;6.52;100.00
43436;BME280;36399;51.444;-2.018;2022-07-05T02:30:12;101280.31;;;6.47;100.00
43436;BME280;36399;51.444;-2.018;2022-07-05T02:32:38;101281.28;;;6.49;100.00
43436;BME280;36399;51.444;-2.018;2022-07-05T02:35:05;101278.53;;;6.46;100.00
43436;BME280;36399;51.444;-2.018;2022-07-05T02:37:32;101275.75;;;6.41;100.00
43436;BME280;36399;51.444;-2.018;2022-07-05T02:39:58;101277.41;;;6.39;100.00
43436;BME280;36399;51.444;-2.018;2022-07-05T02:42:24;101279.25;;;6.42;100.00
43436;BME280;36399;51.444;-2.018;2022-07-05T02:44:50;101277.34;;;6.38;100.00
43436;BME280;36399;51.444;-2.018;2022-07-05T02:47:16;101281.47;;;6.32;100.00
43436;BME280;36399;51.444;-2.018;2022-07-05T02:49:42;101275.03;;;6.24;100.00
43436;BME280;36399;51.444;-2.018;2022-07-05T02:52:08;101278.28;;;6.20;100.00
43436;BME280;36399;51.444;-2.018;2022-07-05T02:54:34;101274.03;;;6.22;100.00
43436;BME280;36399;51.444;-2.018;2022-07-05T02:57:00;101266.91;;;6.18;100.00
43436;BME280;36399;51.444;-2.018;2022-07-05T02:59:26;101267.69;;;6.16;100.00
43436;BME280;36399;51.444;-2.018;2022-07-05T03:01:55;101275.44;;;6.14;100.00
43436;BME280;36399;51.444;-2.018;2022-07-05T03:04:21;101275.09;;;6.07;100.00
43436;BME280;36399;51.444;-2.018;2022-07-05T03:06:47;101266.53;;;6.09;100.00
43436;BME280;36399;51.444;-2.018;2022-07-05T03:09:13;101265.56;;;6.07;100.00
43436;BME280;36399;51.444;-2.018;2022-07-05T03:11:39;101264.75;;;6.08;100.00
43436;BME280;36399;51.444;-2.018;2022-07-05T03:14:05;101267.41;;;6.10;100.00
43436;BME280;36399;51.444;-2.018;2022-07-05T03:16:30;101265.75;;;6.12;100.00
43436;BME280;36399;51.444;-2.018;2022-07-05T03:18:56;101275.09;;;6.07;100.00
43436;BME280;36399;51.444;-2.018;2022-07-05T03:21:22;101279.97;;;5.99;100.00
43436;BME280;36399;51.444;-2.018;2022-07-05T03:23:48;101284.78;;;5.90;100.00
43436;BME280;36399;51.444;-2.018;2022-07-05T03:26:14;101290.66;;;5.86;100.00
43436;BME280;36399;51.444;-2.018;2022-07-05T03:28:42;101290.50;;;5.83;100.00
43436;BME280;36399;51.444;-2.018;2022-07-05T03:31:08;101289.28;;;5.75;100.00
43436;BME280;36399;51.444;-2.018;2022-07-05T03:33:34;101297.91;;;5.74;100.00
43436;BME280;36399;51.444;-2.018;2022-07-05T03:36:00;101296.13;;;5.73;100.00
43436;BME280;36399;51.444;-2.018;2022-07-05T03:38:26;101295.38;;;5.75;100.00
43436;BME280;36399;51.444;-2.018;2022-07-05T03:40:52;101295.59;;;5.80;100.00
43436;BME280;36399;51.444;-2.018;2022-07-05T03:43:18;101287.16;;;5.85;100.00
43436;BME280;36399;51.444;-2.018;2022-07-05T03:45:44;101291.78;;;5.91;100.00
43436;BME280;36399;51.444;-2.018;2022-07-05T03:48:10;101279.97;;;5.99;100.00
43436;BME280;36399;51.444;-2.018;2022-07-05T03:50:36;101284.69;;;6.08;100.00
43436;BME280;36399;51.444;-2.018;2022-07-05T03:53:02;101283.50;;;6.20;100.00
43436;BME280;36399;51.444;-2.018;2022-07-05T03:55:28;101284.00;;;6.31;100.00
43436;BME280;36399;51.444;-2.018;2022-07-05T03:57:54;101294.06;;;6.43;100.00
43436;BME280;36399;51.444;-2.018;2022-07-05T04:00:20;101296.09;;;6.50;100.00
43436;BME280;36399;51.444;-2.018;2022-07-05T04:02:46;101293.81;;;6.57;100.00
43436;BME280;36399;51.444;-2.018;2022-07-05T04:05:12;101297.75;;;6.69;100.00
43436;BME280;36399;51.444;-2.018;2022-07-05T04:07:56;101297.06;;;6.73;100.00
43436;BME280;36399;51.444;-2.018;2022-07-05T04:10:22;101293.91;;;6.80;100.00
43436;BME280;36399;51.444;-2.018;2022-07-05T04:12:48;101297.47;;;6.82;100.00
43436;BME280;36399;51.444;-2.018;2022-07-05T04:15:15;101301.09;;;6.85;100.00
43436;BME280;36399;51.444;-2.018;2022-07-05T04:17:52;101302.75;;;6.83;100.00
43436;BME280;36399;51.444;-2.018;2022-07-05T04:20:20;101297.59;;;6.85;100.00
43436;BME280;36399;51.444;-2.018;2022-07-05T04:22:48;101308.84;;;6.84;100.00
43436;BME280;36399;51.444;-2.018;2022-07-05T04:25:15;101302.88;;;6.86;100.00
43436;BME280;36399;51.444;-2.018;2022-07-05T04:27:48;101305.41;;;6.85;100.00
43436;BME280;36399;51.444;-2.018;2022-07-05T04:30:15;101302.88;;;6.86;100.00
43436;BME280;36399;51.444;-2.018;2022-07-05T04:32:42;101301.22;;;6.88;100.00
43436;BME280;36399;51.444;-2.018;2022-07-05T04:35:09;101305.91;;;6.97;100.00
43436;BME280;36399;51.444;-2.018;2022-07-05T04:37:35;101307.06;;;7.04;100.00
43436;BME280;36399;51.444;-2.018;2022-07-05T04:40:06;101303.84;;;7.11;100.00
43436;BME280;36399;51.444;-2.018;2022-07-05T04:42:32;101301.94;;;7.07;100.00
43436;BME280;36399;51.444;-2.018;2022-07-05T04:44:58;101309.72;;;7.05;100.00
43436;BME280;36399;51.444;-2.018;2022-07-05T04:47:25;101312.28;;;7.04;100.00
43436;BME280;36399;51.444;-2.018;2022-07-05T04:49:52;101316.91;;;7.11;100.00
43436;BME280;36399;51.444;-2.018;2022-07-05T04:52:18;101317.88;;;7.13;100.00
43436;BME280;36399;51.444;-2.018;2022-07-05T04:54:44;101314.53;;;7.17;100.00
43436;BME280;36399;51.444;-2.018;2022-07-05T04:57:10;101319.88;;;7.20;100.00
43436;BME280;36399;51.444;-2.018;2022-07-05T04:59:36;101319.88;;;7.20;100.00
43436;BME280;36399;51.444;-2.018;2022-07-05T05:02:02;101321.19;;;7.09;100.00
43436;BME280;36399;51.444;-2.018;2022-07-05T05:04:28;101328.81;;;7.04;100.00
43436;BME280;36399;51.444;-2.018;2022-07-05T05:06:54;101325.91;;;6.96;100.00
43436;BME280;36399;51.444;-2.018;2022-07-05T05:09:20;101320.69;;;6.96;100.00
43436;BME280;36399;51.444;-2.018;2022-07-05T05:11:48;101322.34;;;6.94;100.00
43436;BME280;36399;51.444;-2.018;2022-07-05T05:14:14;101329.84;;;7.08;100.00
43436;BME280;36399;51.444;-2.018;2022-07-05T05:16:40;101320.66;;;7.17;100.00
43436;BME280;36399;51.444;-2.018;2022-07-05T05:19:07;101320.53;;;7.35;100.00
43436;BME280;36399;51.444;-2.018;2022-07-05T05:21:33;101330.03;;;7.55;100.00
43436;BME280;36399;51.444;-2.018;2022-07-05T05:23:59;101328.66;;;7.87;100.00
43436;BME280;36399;51.444;-2.018;2022-07-05T05:26:25;101326.53;;;8.01;100.00
43436;BME280;36399;51.444;-2.018;2022-07-05T05:28:51;101324.63;;;8.21;100.00
43436;BME280;36399;51.444;-2.018;2022-07-05T05:31:18;101323.00;;;8.47;100.00
43436;BME280;36399;51.444;-2.018;2022-07-05T05:33:45;101325.63;;;8.72;100.00
43436;BME280;36399;51.444;-2.018;2022-07-05T05:36:11;101316.09;;;9.00;100.00
43436;BME280;36399;51.444;-2.018;2022-07-05T05:38:37;101316.25;;;9.33;100.00
43436;BME280;36399;51.444;-2.018;2022-07-05T05:41:04;101314.38;;;9.56;100.00
43436;BME280;36399;51.444;-2.018;2022-07-05T05:43:29;101325.41;;;9.74;100.00
43436;BME280;36399;51.444;-2.018;2022-07-05T05:45:56;101322.59;;;9.96;100.00
43436;BME280;36399;51.444;-2.018;2022-07-05T05:48:22;101333.19;;;9.99;100.00
43436;BME280;36399;51.444;-2.018;2022-07-05T05:50:48;101340.53;;;9.82;100.00
43436;BME280;36399;51.444;-2.018;2022-07-05T05:53:14;101341.97;;;9.73;100.00
43436;BME280;36399;51.444;-2.018;2022-07-05T05:55:40;101344.06;;;9.55;100.00
43436;BME280;36399;51.444;-2.018;2022-07-05T05:58:18;101341.25;;;9.48;100.00
43436;BME280;36399;51.444;-2.018;2022-07-05T06:00:46;101349.19;;;9.52;100.00
43436;BME280;36399;51.444;-2.018;2022-07-05T06:03:23;101358.28;;;9.63;100.00
43436;BME280;36399;51.444;-2.018;2022-07-05T06:05:49;101355.00;;;9.70;100.00
43436;BME280;36399;51.444;-2.018;2022-07-05T06:08:16;101357.06;;;9.80;100.00
43436;BME280;36399;51.444;-2.018;2022-07-05T06:10:42;101352.13;;;9.89;100.00
43436;BME280;36399;51.444;-2.018;2022-07-05T06:13:10;101353.22;;;9.97;100.00
43436;BME280;36399;51.444;-2.018;2022-07-05T06:15:37;101354.50;;;10.11;100.00
43436;BME280;36399;51.444;-2.018;2022-07-05T06:18:04;101350.38;;;10.20;100.00
43436;BME280;36399;51.444;-2.018;2022-07-05T06:20:33;101359.53;;;10.34;100.00
43436;BME280;36399;51.444;-2.018;2022-07-05T06:23:01;101363.34;;;10.43;100.00
43436;BME280;36399;51.444;-2.018;2022-07-05T06:25:28;101363.84;;;10.62;100.00
43436;BME280;36399;51.444;-2.018;2022-07-05T06:28:04;101359.78;;;10.74;100.00
43436;BME280;36399;51.444;-2.018;2022-07-05T06:30:32;101360.91;;;10.84;100.00
43436;BME280;36399;51.444;-2.018;2022-07-05T06:32:58;101360.38;;;10.96;100.00
43436;BME280;36399;51.444;-2.018;2022-07-05T06:35:25;101366.09;;;11.14;100.00
43436;BME280;36399;51.444;-2.018;2022-07-05T06:37:53;101359.34;;;11.25;100.00
43436;BME280;36399;51.444;-2.018;2022-07-05T06:40:25;101362.47;;;11.45;100.00
43436;BME280;36399;51.444;-2.018;2022-07-05T06:42:52;101354.16;;;11.64;100.00
43436;BME280;36399;51.444;-2.018;2022-07-05T06:45:19;101365.94;;;11.80;100.00
43436;BME280;36399;51.444;-2.018;2022-07-05T06:47:54;101365.09;;;11.83;100.00
43436;BME280;36399;51.444;-2.018;2022-07-05T06:50:20;101360.88;;;11.89;100.00
43436;BME280;36399;51.444;-2.018;2022-07-05T06:52:46;101367.09;;;11.93;100.00
43436;BME280;36399;51.444;-2.018;2022-07-05T06:55:12;101361.88;;;11.96;100.00
43436;BME280;36399;51.444;-2.018;2022-07-05T06:57:38;101358.59;;;12.05;100.00
43436;BME280;36399;51.444;-2.018;2022-07-05T07:00:05;101359.69;;;12.16;100.00
43436;BME280;36399;51.444;-2.018;2022-07-05T07:02:31;101361.66;;;12.26;100.00
43436;BME280;36399;51.444;-2.018;2022-07-05T07:04:57;101359.28;;;12.40;100.00
43436;BME280;36399;51.444;-2.018;2022-07-05T07:07:23;101359.44;;;12.47;100.00
43436;BME280;36399;51.444;-2.018;2022-07-05T07:10:08;101345.69;;;12.62;100.00
43436;BME280;36399;51.444;-2.018;2022-07-05T07:12:34;101349.31;;;12.67;100.00
43436;BME280;36399;51.444;-2.018;2022-07-05T07:15:00;101343.53;;;12.88;100.00
43436;BME280;36399;51.444;-2.018;2022-07-05T07:17:26;101343.00;;;13.07;100.00
43436;BME280;36399;51.444;-2.018;2022-07-05T07:19:52;101343.06;;;13.12;100.00
43436;BME280;36399;51.444;-2.018;2022-07-05T07:22:18;101337.03;;;13.17;100.00
43436;BME280;36399;51.444;-2.018;2022-07-05T07:24:44;101342.47;;;13.26;100.00
43436;BME280;36399;51.444;-2.018;2022-07-05T07:27:10;101342.56;;;13.33;100.00
43436;BME280;36399;51.444;-2.018;2022-07-05T07:29:38;101352.44;;;13.47;100.00
43436;BME280;36399;51.444;-2.018;2022-07-05T07:32:06;101358.72;;;13.54;100.00
43436;BME280;36399;51.444;-2.018;2022-07-05T07:34:33;101354.53;;;13.68;100.00
43436;BME280;36399;51.444;-2.018;2022-07-05T07:36:59;101363.53;;;13.82;100.00
43436;BME280;36399;51.444;-2.018;2022-07-05T07:39:26;101364.78;;;14.09;100.00
43436;BME280;36399;51.444;-2.018;2022-07-05T07:41:52;101359.72;;;14.27;100.00
43436;BME280;36399;51.444;-2.018;2022-07-05T07:44:19;101356.59;;;14.57;100.00
43436;BME280;36399;51.444;-2.018;2022-07-05T07:46:45;101368.28;;;14.82;100.00
43436;BME280;36399;51.444;-2.018;2022-07-05T07:49:12;101368.34;;;14.88;100.00
43436;BME280;36399;51.444;-2.018;2022-07-05T07:51:39;101373.88;;;15.11;100.00
43436;BME280;36399;51.444;-2.018;2022-07-05T07:54:05;101373.94;;;15.19;100.00
43436;BME280;36399;51.444;-2.018;2022-07-05T07:56:32;101383.66;;;15.23;100.00
43436;BME280;36399;51.444;-2.018;2022-07-05T07:58:58;101390.91;;;15.48;100.00
43436;BME280;36399;51.444;-2.018;2022-07-05T08:01:24;101401.69;;;15.66;100.00
43436;BME280;36399;51.444;-2.018;2022-07-05T08:03:50;101403.63;;;15.95;100.00
43436;BME280;36399;51.444;-2.018;2022-07-05T08:06:16;101409.06;;;16.13;100.00
43436;BME280;36399;51.444;-2.018;2022-07-05T08:08:43;101413.38;;;16.00;100.00
43436;BME280;36399;51.444;-2.018;2022-07-05T08:11:11;101417.78;;;16.00;100.00
43436;BME280;36399;51.444;-2.018;2022-07-05T08:13:38;101408.06;;;15.96;100.00
43436;BME280;36399;51.444;-2.018;2022-07-05T08:16:07;101412.47;;;15.97;100.00
43436;BME280;36399;51.444;-2.018;2022-07-05T08:18:33;101416.16;;;16.17;100.00
43436;BME280;36399;51.444;-2.018;2022-07-05T08:21:18;101426.84;;;16.38;100.00
43436;BME280;36399;51.444;-2.018;2022-07-05T08:24:02;101432.16;;;16.45;100.00
43436;BME280;36399;51.444;-2.018;2022-07-05T08:26:29;101428.78;;;16.73;100.00
43436;BME280;36399;51.444;-2.018;2022-07-05T08:29:03;101444.75;;;16.91;100.00
43436;BME280;36399;51.444;-2.018;2022-07-05T08:31:31;101451.81;;;16.92;100.00
43436;BME280;36399;51.444;-2.018;2022-07-05T08:33:58;101463.34;;;17.14;100.00
43436;BME280;36399;51.444;-2.018;2022-07-05T08:36:25;101459.84;;;17.29;100.00
43436;BME280;36399;51.444;-2.018;2022-07-05T08:38:51;101469.59;;;17.51;100.00
43436;BME280;36399;51.444;-2.018;2022-07-05T08:41:19;101460.81;;;17.77;100.00
43436;BME280;36399;51.444;-2.018;2022-07-05T08:43:47;101455.44;;;18.04;100.00
43436;BME280;36399;51.444;-2.018;2022-07-05T08:46:14;101463.38;;;18.15;100.00
43436;BME280;36399;51.444;-2.018;2022-07-05T08:48:42;101473.13;;;18.22;100.00
43436;BME280;36399;51.444;-2.018;2022-07-05T08:51:20;101484.66;;;18.10;100.00
43436;BME280;36399;51.444;-2.018;2022-07-05T08:53:51;101485.50;;;18.18;100.00
43436;BME280;36399;51.444;-2.018;2022-07-05T08:56:18;101481.94;;;18.36;100.00
43436;BME280;36399;51.444;-2.018;2022-07-05T08:58:44;101485.44;;;18.52;100.00
43436;BME280;36399;51.444;-2.018;2022-07-05T09:01:11;101500.47;;;18.79;100.00
43436;BME280;36399;51.444;-2.018;2022-07-05T09:03:42;101505.81;;;18.74;100.00
43436;BME280;36399;51.444;-2.018;2022-07-05T09:06:11;101499.59;;;18.75;100.00
43436;BME280;36399;51.444;-2.018;2022-07-05T09:08:39;101496.06;;;18.52;100.00
43436;BME280;36399;51.444;-2.018;2022-07-05T09:11:07;101494.28;;;18.65;100.00
43436;BME280;36399;51.444;-2.018;2022-07-05T09:13:36;101496.91;;;18.78;100.00
43436;BME280;36399;51.444;-2.018;2022-07-05T09:16:02;101496.81;;;18.97;100.00
43436;BME280;36399;51.444;-2.018;2022-07-05T09:18:46;101497.50;;;19.32;100.00
43436;BME280;36399;51.444;-2.018;2022-07-05T09:23:52;101513.06;;;19.93;100.00
43436;BME280;36399;51.444;-2.018;2022-07-05T09:26:20;101501.00;;;20.47;100.00
43436;BME280;36399;51.444;-2.018;2022-07-05T09:28:56;101509.97;;;20.40;100.00
43436;BME280;36399;51.444;-2.018;2022-07-05T09:31:33;101521.78;;;20.10;100.00
43436;BME280;36399;51.444;-2.018;2022-07-05T09:34:16;101521.94;;;20.79;100.00
43436;BME280;36399;51.444;-2.018;2022-07-05T09:37:02;101557.47;;;20.88;100.00
43436;BME280;36399;51.444;-2.018;2022-07-05T09:42:30;101631.94;;;21.09;100.00
43436;BME280;36399;51.444;-2.018;2022-07-05T09:44:57;101641.09;;;20.88;100.00
43436;BME280;36399;51.444;-2.018;2022-07-05T09:47:24;101640.75;;;21.17;100.00
43436;BME280;36399;51.444;-2.018;2022-07-05T09:49:52;101640.34;;;20.72;100.00
43436;BME280;36399;51.444;-2.018;2022-07-05T09:52:35;101650.50;;;20.29;100.00
43436;BME280;36399;51.444;-2.018;2022-07-05T09:55:16;101646.84;;;20.44;100.00
43436;BME280;36399;51.444;-2.018;2022-07-05T09:57:44;101651.19;;;20.56;100.00
43436;BME280;36399;51.444;-2.018;2022-07-05T10:00:13;101649.78;;;20.07;100.00
43436;BME280;36399;51.444;-2.018;2022-07-05T10:02:56;101640.38;;;20.69;100.00
43436;BME280;36399;51.444;-2.018;2022-07-05T10:05:31;101647.56;;;20.61;100.00
43436;BME280;36399;51.444;-2.018;2022-07-05T10:07:59;101644.72;;;20.78;100.00
43436;BME280;36399;51.444;-2.018;2022-07-05T10:10:28;101650.78;;;20.97;100.00
43436;BME280;36399;51.444;-2.018;2022-07-05T10:13:03;101645.38;;;21.73;100.00
43436;BME280;36399;51.444;-2.018;2022-07-05T10:15:32;101655.50;;;21.52;100.00
43436;BME280;36399;51.444;-2.018;2022-07-05T10:18:07;101646.63;;;21.50;100.00
43436;BME280;36399;51.444;-2.018;2022-07-05T10:23:14;101640.19;;;22.75;100.00
43436;BME280;36399;51.444;-2.018;2022-07-05T10:25:42;101639.22;;;22.81;100.00
43436;BME280;36399;51.444;-2.018;2022-07-05T10:28:09;101635.75;;;22.73;100.00
43436;BME280;36399;51.444;-2.018;2022-07-05T10:30:36;101645.22;;;22.95;100.00
43436;BME280;36399;51.444;-2.018;2022-07-05T10:33:05;101639.22;;;22.81;100.00
43436;BME280;36399;51.444;-2.018;2022-07-05T10:35:32;101643.72;;;23.23;100.00
43436;BME280;36399;51.444;-2.018;2022-07-05T10:37:59;101640.97;;;22.82;100.00
43436;BME280;36399;51.444;-2.018;2022-07-05T10:40:27;101648.69;;;23.00;100.00
43436;BME280;36399;51.444;-2.018;2022-07-05T10:42:56;101659.06;;;22.14;100.00
43436;BME280;36399;51.444;-2.018;2022-07-05T10:53:15;101644.00;;;23.93;100.00
43436;BME280;36399;51.444;-2.018;2022-07-05T10:58:20;101641.50;;;23.85;100.00
43436;BME280;36399;51.444;-2.018;2022-07-05T11:00:48;101648.00;;;24.83;100.00
43436;BME280;36399;51.444;-2.018;2022-07-05T11:03:48;101657.13;;;23.67;100.00
43436;BME280;36399;51.444;-2.018;2022-07-05T11:06:25;101661.16;;;23.01;100.00
43436;BME280;36399;51.444;-2.018;2022-07-05T11:11:39;101664.72;;;22.51;100.00
43436;BME280;36399;51.444;-2.018;2022-07-05T11:22:23;101652.88;;;23.13;100.00
43436;BME280;36399;51.444;-2.018;2022-07-05T11:24:49;101659.16;;;23.12;100.00
43436;BME280;36399;51.444;-2.018;2022-07-05T11:27:15;101650.53;;;22.96;100.00
43436;BME280;36399;51.444;-2.018;2022-07-05T11:39:41;101672.59;;;22.04;100.00
43436;BME280;36399;51.444;-2.018;2022-07-05T11:42:19;101673.13;;;21.65;100.00
43436;BME280;36399;51.444;-2.018;2022-07-05T11:44:49;101674.22;;;21.50;100.00
43436;BME280;36399;51.444;-2.018;2022-07-05T11:47:19;101671.72;;;22.04;100.00
43436;BME280;36399;51.444;-2.018;2022-07-05T11:49:58;101677.22;;;22.50;100.00
43436;BME280;36399;51.444;-2.018;2022-07-05T11:52:28;101668.28;;;23.47;100.00
43436;BME280;36399;51.444;-2.018;2022-07-05T11:55:00;101668.88;;;23.61;100.00
43436;BME280;36399;51.444;-2.018;2022-07-05T11:57:26;101669.19;;;23.46;100.00
43436;BME280;36399;51.444;-2.018;2022-07-05T11:59:53;101672.78;;;23.00;100.00
43436;BME280;36399;51.444;-2.018;2022-07-05T12:02:20;101678.25;;;22.94;100.00
43436;BME280;36399;51.444;-2.018;2022-07-05T12:04:54;101672.84;;;22.97;100.00
43436;BME280;36399;51.444;-2.018;2022-07-05T12:07:32;101674.00;;;22.28;100.00
43436;BME280;36399;51.444;-2.018;2022-07-05T12:09:58;101668.56;;;22.85;100.00
43436;BME280;36399;51.444;-2.018;2022-07-05T12:12:44;101660.25;;;23.02;100.00
43436;BME280;36399;51.444;-2.018;2022-07-05T12:15:18;101666.44;;;23.49;100.00
43436;BME280;36399;51.444;-2.018;2022-07-05T12:17:49;101653.06;;;23.87;100.00
43436;BME280;36399;51.444;-2.018;2022-07-05T12:20:22;101662.22;;;24.54;100.00
43436;BME280;36399;51.444;-2.018;2022-07-05T12:22:49;101660.47;;;23.78;100.00
43436;BME280;36399;51.444;-2.018;2022-07-05T12:25:19;101655.13;;;23.76;100.00
43436;BME280;36399;51.444;-2.018;2022-07-05T12:27:46;101654.06;;;24.22;100.00
43436;BME280;36399;51.444;-2.018;2022-07-05T12:30:17;101656.84;;;23.79;100.00
43436;BME280;36399;51.444;-2.018;2022-07-05T12:35:35;101646.41;;;25.10;100.00
43436;BME280;36399;51.444;-2.018;2022-07-05T12:38:22;101639.69;;;24.60;100.00
43436;BME280;36399;51.444;-2.018;2022-07-05T12:40:58;101637.75;;;24.65;100.00
43436;BME280;36399;51.444;-2.018;2022-07-05T12:43:25;101649.34;;;25.01;100.00
43436;BME280;36399;51.444;-2.018;2022-07-05T12:46:05;101647.78;;;24.59;100.00
43436;BME280;36399;51.444;-2.018;2022-07-05T12:48:31;101650.16;;;25.05;100.00
43436;BME280;36399;51.444;-2.018;2022-07-05T12:51:01;101655.28;;;23.70;100.00
43436;BME280;36399;51.444;-2.018;2022-07-05T12:53:28;101641.19;;;23.99;100.00
43436;BME280;36399;51.444;-2.018;2022-07-05T12:56:14;101641.84;;;24.80;100.00
43436;BME280;36399;51.444;-2.018;2022-07-05T12:59:01;101644.28;;;26.10;100.00
43436;BME280;36399;51.444;-2.018;2022-07-05T13:01:32;101645.41;;;25.75;100.00
43436;BME280;36399;51.444;-2.018;2022-07-05T13:07:03;101656.69;;;24.61;100.00
43436;BME280;36399;51.444;-2.018;2022-07-05T13:12:24;101647.69;;;23.04;100.00
43436;BME280;36399;51.444;-2.018;2022-07-05T13:14:52;101640.84;;;22.88;100.00
43436;BME280;36399;51.444;-2.018;2022-07-05T13:17:22;101641.81;;;22.84;100.00
43436;BME280;36399;51.444;-2.018;2022-07-05T13:19:50;101647.63;;;23.07;100.00
43436;BME280;36399;51.444;-2.018;2022-07-05T13:22:17;101645.28;;;22.92;100.00
43436;BME280;36399;51.444;-2.018;2022-07-05T13:24:43;101638.66;;;23.10;100.00
43436;BME280;36399;51.444;-2.018;2022-07-05T13:27:11;101641.81;;;23.72;100.00
43436;BME280;36399;51.444;-2.018;2022-07-05T13:29:40;101639.56;;;23.52;100.00